sensor_id;sensor_type;location;lat;lon;timestamp;P1;durP1;ratioP1;P2;durP2;ratioP2
11964;SDS011;6042;41.326;19.826;2023-08-06T00:00:42;1.90;;;1.40;;
11964;SDS011;6042;41.326;19.826;2023-08-06T00:03:11;4.13;;;1.63;;
11964;SDS011;6042;41.326;19.826;2023-08-06T00:05:41;2.77;;;1.70;;
11964;SDS011;6042;41.326;19.826;2023-08-06T00:08:12;2.70;;;1.47;;
11964;SDS011;6042;41.326;19.826;2023-08-06T00:10:41;4.80;;;1.73;;
11964;SDS011;6042;41.326;19.826;2023-08-06T00:13:10;2.23;;;1.40;;
11964;SDS011;6042;41.326;19.826;2023-08-06T00:15:48;2.20;;;1.20;;
11964;SDS011;6042;41.326;19.826;2023-08-06T00:18:17;4.17;;;1.33;;
11964;SDS011;6042;41.326;19.826;2023-08-06T00:20:45;2.43;;;1.30;;
11964;SDS011;6042;41.326;19.826;2023-08-06T00:23:17;4.37;;;1.07;;
11964;SDS011;6042;41.326;19.826;2023-08-06T00:25:48;2.40;;;1.40;;
11964;SDS011;6042;41.326;19.826;2023-08-06T00:28:16;1.60;;;1.00;;
11964;SDS011;6042;41.326;19.826;2023-08-06T00:30:45;2.03;;;1.13;;
11964;SDS011;6042;41.326;19.826;2023-08-06T00:33:14;1.47;;;1.03;;
11964;SDS011;6042;41.326;19.826;2023-08-06T00:35:42;1.60;;;1.30;;
11964;SDS011;6042;41.326;19.826;2023-08-06T00:38:11;2.73;;;1.20;;
11964;SDS011;6042;41.326;19.826;2023-08-06T00:40:41;1.97;;;1.17;;
11964;SDS011;6042;41.326;19.826;2023-08-06T00:43:10;3.00;;;1.20;;
11964;SDS011;6042;41.326;19.826;2023-08-06T00:45:40;2.73;;;0.90;;
11964;SDS011;6042;41.326;19.826;2023-08-06T00:48:09;1.37;;;0.87;;
11964;SDS011;6042;41.326;19.826;2023-08-06T00:50:38;1.00;;;0.70;;
11964;SDS011;6042;41.326;19.826;2023-08-06T00:53:07;0.90;;;0.90;;
11964;SDS011;6042;41.326;19.826;2023-08-06T00:55:36;1.13;;;0.60;;
11964;SDS011;6042;41.326;19.826;2023-08-06T00:58:06;1.00;;;0.90;;
11964;SDS011;6042;41.326;19.826;2023-08-06T01:00:36;1.60;;;0.73;;
11964;SDS011;6042;41.326;19.826;2023-08-06T01:03:05;3.97;;;0.63;;
11964;SDS011;6042;41.326;19.826;2023-08-06T01:05:33;0.93;;;0.73;;
11964;SDS011;6042;41.326;19.826;2023-08-06T01:08:06;2.53;;;0.90;;
11964;SDS011;6042;41.326;19.826;2023-08-06T01:10:50;2.33;;;1.10;;
11964;SDS011;6042;41.326;19.826;2023-08-06T01:13:31;2.17;;;1.13;;
11964;SDS011;6042;41.326;19.826;2023-08-06T01:16:03;2.00;;;1.13;;
11964;SDS011;6042;41.326;19.826;2023-08-06T01:18:35;1.47;;;1.10;;
11964;SDS011;6042;41.326;19.826;2023-08-06T01:21:07;1.43;;;0.87;;
11964;SDS011;6042;41.326;19.826;2023-08-06T01:23:35;1.37;;;0.93;;
11964;SDS011;6042;41.326;19.826;2023-08-06T01:26:07;1.27;;;0.90;;
11964;SDS011;6042;41.326;19.826;2023-08-06T01:28:44;1.17;;;1.00;;
11964;SDS011;6042;41.326;19.826;2023-08-06T01:31:18;1.03;;;0.90;;
11964;SDS011;6042;41.326;19.826;2023-08-06T01:33:50;2.07;;;1.00;;
11964;SDS011;6042;41.326;19.826;2023-08-06T01:36:20;1.10;;;0.67;;
11964;SDS011;6042;41.326;19.826;2023-08-06T01:38:51;1.93;;;1.10;;
11964;SDS011;6042;41.326;19.826;2023-08-06T01:41:21;0.80;;;0.80;;
11964;SDS011;6042;41.326;19.826;2023-08-06T01:43:49;2.40;;;0.80;;
11964;SDS011;6042;41.326;19.826;2023-08-06T01:46:18;2.53;;;0.83;;
11964;SDS011;6042;41.326;19.826;2023-08-06T01:48:47;0.97;;;0.87;;
11964;SDS011;6042;41.326;19.826;2023-08-06T01:51:15;1.97;;;0.93;;
11964;SDS011;6042;41.326;19.826;2023-08-06T01:53:46;1.23;;;0.70;;
11964;SDS011;6042;41.326;19.826;2023-08-06T01:56:15;1.10;;;0.90;;
11964;SDS011;6042;41.326;19.826;2023-08-06T01:58:44;1.10;;;0.80;;
11964;SDS011;6042;41.326;19.826;2023-08-06T02:01:12;1.03;;;0.80;;
11964;SDS011;6042;41.326;19.826;2023-08-06T02:03:41;1.10;;;0.67;;
11964;SDS011;6042;41.326;19.826;2023-08-06T02:06:10;3.40;;;1.07;;
11964;SDS011;6042;41.326;19.826;2023-08-06T02:08:38;1.73;;;0.73;;
11964;SDS011;6042;41.326;19.826;2023-08-06T02:11:08;0.90;;;0.70;;
11964;SDS011;6042;41.326;19.826;2023-08-06T02:13:37;0.93;;;0.80;;
11964;SDS011;6042;41.326;19.826;2023-08-06T02:16:06;1.30;;;0.90;;
11964;SDS011;6042;41.326;19.826;2023-08-06T02:18:36;0.83;;;0.70;;
11964;SDS011;6042;41.326;19.826;2023-08-06T02:21:04;0.90;;;0.90;;
11964;SDS011;6042;41.326;19.826;2023-08-06T02:23:33;0.80;;;0.80;;
11964;SDS011;6042;41.326;19.826;2023-08-06T02:26:02;0.83;;;0.70;;
11964;SDS011;6042;41.326;19.826;2023-08-06T02:28:33;0.83;;;0.50;;
11964;SDS011;6042;41.326;19.826;2023-08-06T02:31:01;1.53;;;0.50;;
11964;SDS011;6042;41.326;19.826;2023-08-06T02:33:30;1.40;;;0.67;;
11964;SDS011;6042;41.326;19.826;2023-08-06T02:35:59;1.27;;;0.77;;
11964;SDS011;6042;41.326;19.826;2023-08-06T02:38:30;0.73;;;0.73;;
11964;SDS011;6042;41.326;19.826;2023-08-06T02:41:01;1.27;;;0.70;;
11964;SDS011;6042;41.326;19.826;2023-08-06T02:43:32;1.53;;;0.60;;
11964;SDS011;6042;41.326;19.826;2023-08-06T02:46:01;1.33;;;0.70;;
11964;SDS011;6042;41.326;19.826;2023-08-06T02:48:30;0.80;;;0.60;;
11964;SDS011;6042;41.326;19.826;2023-08-06T02:50:59;0.97;;;0.70;;
11964;SDS011;6042;41.326;19.826;2023-08-06T02:53:29;0.73;;;0.50;;
11964;SDS011;6042;41.326;19.826;2023-08-06T02:56:03;1.07;;;0.97;;
11964;SDS011;6042;41.326;19.826;2023-08-06T02:58:51;2.17;;;0.83;;
11964;SDS011;6042;41.326;19.826;2023-08-06T03:01:42;1.60;;;1.10;;
11964;SDS011;6042;41.326;19.826;2023-08-06T03:04:22;1.20;;;0.80;;
11964;SDS011;6042;41.326;19.826;2023-08-06T03:06:51;1.43;;;1.20;;
11964;SDS011;6042;41.326;19.826;2023-08-06T03:09:24;1.80;;;1.10;;
11964;SDS011;6042;41.326;19.826;2023-08-06T03:11:56;1.40;;;1.30;;
11964;SDS011;6042;41.326;19.826;2023-08-06T03:14:26;1.10;;;0.90;;
11964;SDS011;6042;41.326;19.826;2023-08-06T03:16:54;0.57;;;0.57;;
11964;SDS011;6042;41.326;19.826;2023-08-06T03:19:23;2.37;;;0.70;;
11964;SDS011;6042;41.326;19.826;2023-08-06T03:21:52;1.03;;;0.70;;
11964;SDS011;6042;41.326;19.826;2023-08-06T03:24:21;2.03;;;0.60;;
11964;SDS011;6042;41.326;19.826;2023-08-06T03:26:52;1.30;;;0.90;;
11964;SDS011;6042;41.326;19.826;2023-08-06T03:29:23;2.73;;;0.60;;
11964;SDS011;6042;41.326;19.826;2023-08-06T03:31:54;1.13;;;0.80;;
11964;SDS011;6042;41.326;19.826;2023-08-06T03:34:22;2.97;;;1.00;;
11964;SDS011;6042;41.326;19.826;2023-08-06T03:36:51;0.83;;;0.70;;
11964;SDS011;6042;41.326;19.826;2023-08-06T03:39:20;1.10;;;1.00;;
11964;SDS011;6042;41.326;19.826;2023-08-06T03:41:48;0.93;;;0.60;;
11964;SDS011;6042;41.326;19.826;2023-08-06T03:44:18;0.90;;;0.90;;
11964;SDS011;6042;41.326;19.826;2023-08-06T03:46:47;0.87;;;0.87;;
11964;SDS011;6042;41.326;19.826;2023-08-06T03:49:17;0.70;;;0.70;;
11964;SDS011;6042;41.326;19.826;2023-08-06T03:51:46;1.70;;;0.80;;
11964;SDS011;6042;41.326;19.826;2023-08-06T03:54:15;1.47;;;0.90;;
11964;SDS011;6042;41.326;19.826;2023-08-06T03:56:43;1.60;;;1.00;;
11964;SDS011;6042;41.326;19.826;2023-08-06T03:59:12;6.37;;;1.20;;
11964;SDS011;6042;41.326;19.826;2023-08-06T04:01:40;3.60;;;0.80;;
11964;SDS011;6042;41.326;19.826;2023-08-06T04:04:09;1.57;;;0.90;;
11964;SDS011;6042;41.326;19.826;2023-08-06T04:06:39;1.60;;;0.87;;
11964;SDS011;6042;41.326;19.826;2023-08-06T04:09:07;1.33;;;1.03;;
11964;SDS011;6042;41.326;19.826;2023-08-06T04:11:36;1.30;;;0.87;;
11964;SDS011;6042;41.326;19.826;2023-08-06T04:14:05;2.60;;;0.80;;
11964;SDS011;6042;41.326;19.826;2023-08-06T04:16:33;3.67;;;0.80;;
11964;SDS011;6042;41.326;19.826;2023-08-06T04:19:02;1.97;;;1.10;;
11964;SDS011;6042;41.326;19.826;2023-08-06T04:21:30;1.00;;;0.80;;
11964;SDS011;6042;41.326;19.826;2023-08-06T04:24:00;1.17;;;0.87;;
11964;SDS011;6042;41.326;19.826;2023-08-06T04:26:30;1.67;;;1.00;;
11964;SDS011;6042;41.326;19.826;2023-08-06T04:28:59;1.97;;;0.97;;
11964;SDS011;6042;41.326;19.826;2023-08-06T04:31:28;3.23;;;0.80;;
11964;SDS011;6042;41.326;19.826;2023-08-06T04:33:57;4.27;;;0.70;;
11964;SDS011;6042;41.326;19.826;2023-08-06T04:36:26;2.30;;;0.80;;
11964;SDS011;6042;41.326;19.826;2023-08-06T04:38:55;4.87;;;1.30;;
11964;SDS011;6042;41.326;19.826;2023-08-06T04:41:25;0.80;;;0.80;;
11964;SDS011;6042;41.326;19.826;2023-08-06T04:43:53;1.83;;;0.77;;
11964;SDS011;6042;41.326;19.826;2023-08-06T04:46:22;2.23;;;0.83;;
11964;SDS011;6042;41.326;19.826;2023-08-06T04:48:51;3.03;;;0.70;;
11964;SDS011;6042;41.326;19.826;2023-08-06T04:51:19;5.00;;;0.60;;
11964;SDS011;6042;41.326;19.826;2023-08-06T04:53:48;1.23;;;0.70;;
11964;SDS011;6042;41.326;19.826;2023-08-06T04:56:17;1.57;;;0.90;;
11964;SDS011;6042;41.326;19.826;2023-08-06T04:58:46;3.77;;;1.23;;
11964;SDS011;6042;41.326;19.826;2023-08-06T05:01:17;1.97;;;1.00;;
11964;SDS011;6042;41.326;19.826;2023-08-06T05:03:46;2.07;;;1.20;;
11964;SDS011;6042;41.326;19.826;2023-08-06T05:06:16;2.27;;;0.97;;
11964;SDS011;6042;41.326;19.826;2023-08-06T05:08:44;0.80;;;0.80;;
11964;SDS011;6042;41.326;19.826;2023-08-06T05:11:14;5.63;;;1.30;;
11964;SDS011;6042;41.326;19.826;2023-08-06T05:13:42;1.17;;;0.90;;
11964;SDS011;6042;41.326;19.826;2023-08-06T05:16:12;2.63;;;0.80;;
11964;SDS011;6042;41.326;19.826;2023-08-06T05:18:41;1.27;;;0.80;;
11964;SDS011;6042;41.326;19.826;2023-08-06T05:21:09;3.80;;;1.00;;
11964;SDS011;6042;41.326;19.826;2023-08-06T05:23:38;1.10;;;0.90;;
11964;SDS011;6042;41.326;19.826;2023-08-06T05:26:06;2.10;;;0.80;;
11964;SDS011;6042;41.326;19.826;2023-08-06T05:28:35;2.87;;;0.80;;
11964;SDS011;6042;41.326;19.826;2023-08-06T05:31:04;2.27;;;0.63;;
11964;SDS011;6042;41.326;19.826;2023-08-06T05:33:34;1.47;;;0.70;;
11964;SDS011;6042;41.326;19.826;2023-08-06T05:36:03;1.40;;;1.30;;
11964;SDS011;6042;41.326;19.826;2023-08-06T05:38:32;2.30;;;0.90;;
11964;SDS011;6042;41.326;19.826;2023-08-06T05:41:00;1.27;;;0.90;;
11964;SDS011;6042;41.326;19.826;2023-08-06T05:43:29;3.17;;;0.97;;
11964;SDS011;6042;41.326;19.826;2023-08-06T05:45:59;1.50;;;0.80;;
11964;SDS011;6042;41.326;19.826;2023-08-06T05:48:28;1.00;;;0.90;;
11964;SDS011;6042;41.326;19.826;2023-08-06T05:50:58;4.23;;;0.80;;
11964;SDS011;6042;41.326;19.826;2023-08-06T05:53:27;5.83;;;1.60;;
11964;SDS011;6042;41.326;19.826;2023-08-06T05:55:56;2.80;;;0.90;;
11964;SDS011;6042;41.326;19.826;2023-08-06T05:58:24;7.97;;;1.40;;
11964;SDS011;6042;41.326;19.826;2023-08-06T06:00:55;7.53;;;2.00;;
11964;SDS011;6042;41.326;19.826;2023-08-06T06:03:24;1.57;;;1.00;;
11964;SDS011;6042;41.326;19.826;2023-08-06T06:05:52;3.63;;;0.90;;
11964;SDS011;6042;41.326;19.826;2023-08-06T06:08:22;1.30;;;0.73;;
11964;SDS011;6042;41.326;19.826;2023-08-06T06:10:53;2.47;;;1.07;;
11964;SDS011;6042;41.326;19.826;2023-08-06T06:13:22;1.37;;;1.10;;
11964;SDS011;6042;41.326;19.826;2023-08-06T06:15:53;6.13;;;1.50;;
11964;SDS011;6042;41.326;19.826;2023-08-06T06:18:23;0.83;;;0.83;;
11964;SDS011;6042;41.326;19.826;2023-08-06T06:20:52;2.27;;;0.90;;
11964;SDS011;6042;41.326;19.826;2023-08-06T06:23:20;3.63;;;2.00;;
11964;SDS011;6042;41.326;19.826;2023-08-06T06:25:50;1.53;;;1.10;;
11964;SDS011;6042;41.326;19.826;2023-08-06T06:28:19;2.70;;;0.97;;
11964;SDS011;6042;41.326;19.826;2023-08-06T06:30:47;3.40;;;3.03;;
11964;SDS011;6042;41.326;19.826;2023-08-06T06:33:16;4.20;;;3.30;;
11964;SDS011;6042;41.326;19.826;2023-08-06T06:35:45;3.93;;;1.60;;
11964;SDS011;6042;41.326;19.826;2023-08-06T06:38:14;3.63;;;1.23;;
11964;SDS011;6042;41.326;19.826;2023-08-06T06:40:44;4.47;;;1.33;;
11964;SDS011;6042;41.326;19.826;2023-08-06T06:43:20;1.83;;;1.00;;
11964;SDS011;6042;41.326;19.826;2023-08-06T06:45:52;7.20;;;1.30;;
11964;SDS011;6042;41.326;19.826;2023-08-06T06:48:23;2.97;;;1.10;;
11964;SDS011;6042;41.326;19.826;2023-08-06T06:50:52;8.03;;;1.70;;
11964;SDS011;6042;41.326;19.826;2023-08-06T06:53:21;4.27;;;1.23;;
11964;SDS011;6042;41.326;19.826;2023-08-06T06:55:55;9.23;;;1.33;;
11964;SDS011;6042;41.326;19.826;2023-08-06T06:58:25;16.67;;;2.20;;
11964;SDS011;6042;41.326;19.826;2023-08-06T07:00:53;48.83;;;4.53;;
11964;SDS011;6042;41.326;19.826;2023-08-06T07:03:22;80.33;;;6.67;;
11964;SDS011;6042;41.326;19.826;2023-08-06T07:05:51;128.30;;;9.20;;
11964;SDS011;6042;41.326;19.826;2023-08-06T07:08:19;50.13;;;5.53;;
11964;SDS011;6042;41.326;19.826;2023-08-06T07:10:48;53.83;;;7.97;;
11964;SDS011;6042;41.326;19.826;2023-08-06T07:13:18;8.87;;;2.13;;
11964;SDS011;6042;41.326;19.826;2023-08-06T07:15:46;23.10;;;3.50;;
11964;SDS011;6042;41.326;19.826;2023-08-06T07:18:15;3.73;;;0.97;;
11964;SDS011;6042;41.326;19.826;2023-08-06T07:20:47;10.23;;;1.33;;
11964;SDS011;6042;41.326;19.826;2023-08-06T07:23:16;2.37;;;1.10;;
11964;SDS011;6042;41.326;19.826;2023-08-06T07:25:45;1.60;;;0.80;;
11964;SDS011;6042;41.326;19.826;2023-08-06T07:28:14;1.37;;;0.83;;
11964;SDS011;6042;41.326;19.826;2023-08-06T07:30:44;1.03;;;0.70;;
11964;SDS011;6042;41.326;19.826;2023-08-06T07:33:14;1.50;;;0.80;;
11964;SDS011;6042;41.326;19.826;2023-08-06T07:35:43;3.60;;;0.77;;
11964;SDS011;6042;41.326;19.826;2023-08-06T07:38:11;1.10;;;0.70;;
11964;SDS011;6042;41.326;19.826;2023-08-06T07:40:40;3.57;;;0.90;;
11964;SDS011;6042;41.326;19.826;2023-08-06T07:43:08;3.03;;;0.90;;
11964;SDS011;6042;41.326;19.826;2023-08-06T07:45:37;1.73;;;0.70;;
11964;SDS011;6042;41.326;19.826;2023-08-06T07:48:07;1.47;;;0.77;;
11964;SDS011;6042;41.326;19.826;2023-08-06T07:50:36;2.10;;;0.83;;
11964;SDS011;6042;41.326;19.826;2023-08-06T07:53:04;2.37;;;0.87;;
11964;SDS011;6042;41.326;19.826;2023-08-06T07:55:33;2.20;;;0.77;;
11964;SDS011;6042;41.326;19.826;2023-08-06T07:58:01;3.10;;;0.90;;
11964;SDS011;6042;41.326;19.826;2023-08-06T08:00:30;3.13;;;1.00;;
11964;SDS011;6042;41.326;19.826;2023-08-06T08:03:00;2.63;;;0.90;;
11964;SDS011;6042;41.326;19.826;2023-08-06T08:05:30;1.17;;;0.70;;
11964;SDS011;6042;41.326;19.826;2023-08-06T08:07:58;4.63;;;1.00;;
11964;SDS011;6042;41.326;19.826;2023-08-06T08:10:27;2.17;;;1.10;;
11964;SDS011;6042;41.326;19.826;2023-08-06T08:12:55;2.80;;;1.10;;
11964;SDS011;6042;41.326;19.826;2023-08-06T08:15:25;2.37;;;1.10;;
11964;SDS011;6042;41.326;19.826;2023-08-06T08:17:53;1.17;;;0.70;;
11964;SDS011;6042;41.326;19.826;2023-08-06T08:20:22;4.13;;;0.93;;
11964;SDS011;6042;41.326;19.826;2023-08-06T08:22:52;1.33;;;0.90;;
11964;SDS011;6042;41.326;19.826;2023-08-06T08:25:21;2.50;;;0.80;;
11964;SDS011;6042;41.326;19.826;2023-08-06T08:27:49;1.23;;;0.93;;
11964;SDS011;6042;41.326;19.826;2023-08-06T08:30:18;1.80;;;1.00;;
11964;SDS011;6042;41.326;19.826;2023-08-06T08:32:46;1.13;;;0.83;;
11964;SDS011;6042;41.326;19.826;2023-08-06T08:35:15;3.87;;;1.07;;
11964;SDS011;6042;41.326;19.826;2023-08-06T08:37:44;2.47;;;0.90;;
11964;SDS011;6042;41.326;19.826;2023-08-06T08:40:14;2.57;;;1.10;;
11964;SDS011;6042;41.326;19.826;2023-08-06T08:42:43;1.57;;;0.80;;
11964;SDS011;6042;41.326;19.826;2023-08-06T08:45:13;0.83;;;0.80;;
11964;SDS011;6042;41.326;19.826;2023-08-06T08:47:42;1.03;;;0.90;;
11964;SDS011;6042;41.326;19.826;2023-08-06T08:50:11;3.63;;;1.10;;
11964;SDS011;6042;41.326;19.826;2023-08-06T08:52:42;1.90;;;1.00;;
11964;SDS011;6042;41.326;19.826;2023-08-06T08:55:17;3.00;;;1.10;;
11964;SDS011;6042;41.326;19.826;2023-08-06T08:57:48;4.00;;;1.10;;
11964;SDS011;6042;41.326;19.826;2023-08-06T09:00:16;4.17;;;1.20;;
11964;SDS011;6042;41.326;19.826;2023-08-06T09:02:45;8.60;;;1.30;;
11964;SDS011;6042;41.326;19.826;2023-08-06T09:05:14;4.00;;;1.23;;
11964;SDS011;6042;41.326;19.826;2023-08-06T09:07:47;6.13;;;1.53;;
11964;SDS011;6042;41.326;19.826;2023-08-06T09:10:18;2.67;;;1.00;;
11964;SDS011;6042;41.326;19.826;2023-08-06T09:12:50;4.57;;;1.00;;
11964;SDS011;6042;41.326;19.826;2023-08-06T09:15:21;3.77;;;1.10;;
11964;SDS011;6042;41.326;19.826;2023-08-06T09:17:53;2.83;;;1.20;;
11964;SDS011;6042;41.326;19.826;2023-08-06T09:20:21;5.90;;;1.30;;
11964;SDS011;6042;41.326;19.826;2023-08-06T09:22:52;1.47;;;1.03;;
11964;SDS011;6042;41.326;19.826;2023-08-06T09:25:23;2.43;;;1.20;;
11964;SDS011;6042;41.326;19.826;2023-08-06T09:27:52;2.27;;;1.00;;
11964;SDS011;6042;41.326;19.826;2023-08-06T09:30:30;3.60;;;1.20;;
11964;SDS011;6042;41.326;19.826;2023-08-06T09:33:01;3.27;;;1.37;;
11964;SDS011;6042;41.326;19.826;2023-08-06T09:35:30;2.17;;;1.00;;
11964;SDS011;6042;41.326;19.826;2023-08-06T09:38:05;2.07;;;1.23;;
11964;SDS011;6042;41.326;19.826;2023-08-06T09:40:36;1.50;;;1.10;;
11964;SDS011;6042;41.326;19.826;2023-08-06T09:43:06;1.73;;;1.37;;
11964;SDS011;6042;41.326;19.826;2023-08-06T09:45:35;4.73;;;1.27;;
11964;SDS011;6042;41.326;19.826;2023-08-06T09:48:05;1.83;;;1.10;;
11964;SDS011;6042;41.326;19.826;2023-08-06T09:50:40;2.33;;;1.07;;
11964;SDS011;6042;41.326;19.826;2023-08-06T09:53:09;3.47;;;1.23;;
11964;SDS011;6042;41.326;19.826;2023-08-06T09:55:39;3.27;;;1.30;;
11964;SDS011;6042;41.326;19.826;2023-08-06T09:58:07;4.27;;;1.37;;
11964;SDS011;6042;41.326;19.826;2023-08-06T10:00:37;4.33;;;1.67;;
11964;SDS011;6042;41.326;19.826;2023-08-06T10:03:06;5.47;;;1.77;;
11964;SDS011;6042;41.326;19.826;2023-08-06T10:05:36;6.20;;;2.50;;
11964;SDS011;6042;41.326;19.826;2023-08-06T10:08:05;5.20;;;1.73;;
11964;SDS011;6042;41.326;19.826;2023-08-06T10:10:35;10.63;;;5.10;;
11964;SDS011;6042;41.326;19.826;2023-08-06T10:13:05;4.83;;;2.13;;
11964;SDS011;6042;41.326;19.826;2023-08-06T10:15:35;2.63;;;2.40;;
11964;SDS011;6042;41.326;19.826;2023-08-06T10:18:05;8.33;;;3.70;;
11964;SDS011;6042;41.326;19.826;2023-08-06T10:20:34;6.67;;;2.20;;
11964;SDS011;6042;41.326;19.826;2023-08-06T10:23:03;6.73;;;2.73;;
11964;SDS011;6042;41.326;19.826;2023-08-06T10:25:35;8.13;;;6.67;;
11964;SDS011;6042;41.326;19.826;2023-08-06T10:28:11;5.77;;;3.97;;
11964;SDS011;6042;41.326;19.826;2023-08-06T10:30:42;5.43;;;3.87;;
11964;SDS011;6042;41.326;19.826;2023-08-06T10:33:12;4.80;;;2.07;;
11964;SDS011;6042;41.326;19.826;2023-08-06T10:35:43;3.67;;;1.83;;
11964;SDS011;6042;41.326;19.826;2023-08-06T10:38:16;3.57;;;2.10;;
11964;SDS011;6042;41.326;19.826;2023-08-06T10:40:52;3.60;;;2.20;;
11964;SDS011;6042;41.326;19.826;2023-08-06T10:43:31;5.03;;;2.27;;
11964;SDS011;6042;41.326;19.826;2023-08-06T10:46:03;6.70;;;2.73;;
11964;SDS011;6042;41.326;19.826;2023-08-06T10:48:37;4.53;;;2.43;;
11964;SDS011;6042;41.326;19.826;2023-08-06T10:51:06;5.43;;;2.50;;
11964;SDS011;6042;41.326;19.826;2023-08-06T10:53:37;5.50;;;2.43;;
11964;SDS011;6042;41.326;19.826;2023-08-06T10:56:11;4.93;;;2.30;;
11964;SDS011;6042;41.326;19.826;2023-08-06T10:58:42;2.83;;;1.67;;
11964;SDS011;6042;41.326;19.826;2023-08-06T11:01:12;3.07;;;2.40;;
11964;SDS011;6042;41.326;19.826;2023-08-06T11:03:41;3.30;;;2.83;;
11964;SDS011;6042;41.326;19.826;2023-08-06T11:06:11;2.83;;;2.07;;
11964;SDS011;6042;41.326;19.826;2023-08-06T11:08:49;10.83;;;6.83;;
11964;SDS011;6042;41.326;19.826;2023-08-06T11:11:23;3.50;;;2.80;;
11964;SDS011;6042;41.326;19.826;2023-08-06T11:13:53;4.07;;;2.20;;
11964;SDS011;6042;41.326;19.826;2023-08-06T11:16:22;3.30;;;2.83;;
11964;SDS011;6042;41.326;19.826;2023-08-06T11:18:51;3.90;;;2.70;;
11964;SDS011;6042;41.326;19.826;2023-08-06T11:21:21;5.23;;;3.30;;
11964;SDS011;6042;41.326;19.826;2023-08-06T11:23:51;7.90;;;5.37;;
11964;SDS011;6042;41.326;19.826;2023-08-06T11:26:21;5.30;;;3.50;;
11964;SDS011;6042;41.326;19.826;2023-08-06T11:28:50;4.87;;;3.27;;
11964;SDS011;6042;41.326;19.826;2023-08-06T11:31:20;9.53;;;7.47;;
11964;SDS011;6042;41.326;19.826;2023-08-06T11:33:50;4.87;;;2.83;;
11964;SDS011;6042;41.326;19.826;2023-08-06T11:36:28;8.90;;;6.73;;
11964;SDS011;6042;41.326;19.826;2023-08-06T11:38:57;7.67;;;6.23;;
11964;SDS011;6042;41.326;19.826;2023-08-06T11:41:27;3.30;;;2.93;;
11964;SDS011;6042;41.326;19.826;2023-08-06T11:43:58;8.70;;;3.30;;
11964;SDS011;6042;41.326;19.826;2023-08-06T11:46:27;5.60;;;2.60;;
11964;SDS011;6042;41.326;19.826;2023-08-06T11:48:58;8.33;;;3.67;;
11964;SDS011;6042;41.326;19.826;2023-08-06T11:51:27;7.97;;;2.83;;
11964;SDS011;6042;41.326;19.826;2023-08-06T11:53:56;5.67;;;2.63;;
11964;SDS011;6042;41.326;19.826;2023-08-06T11:56:25;10.77;;;5.20;;
11964;SDS011;6042;41.326;19.826;2023-08-06T11:58:54;6.60;;;4.13;;
11964;SDS011;6042;41.326;19.826;2023-08-06T12:01:25;12.77;;;8.00;;
11964;SDS011;6042;41.326;19.826;2023-08-06T12:03:58;5.93;;;4.47;;
11964;SDS011;6042;41.326;19.826;2023-08-06T12:06:27;5.73;;;4.07;;
11964;SDS011;6042;41.326;19.826;2023-08-06T12:08:55;3.80;;;3.03;;
11964;SDS011;6042;41.326;19.826;2023-08-06T12:11:24;2.17;;;1.67;;
11964;SDS011;6042;41.326;19.826;2023-08-06T12:13:54;6.17;;;4.17;;
11964;SDS011;6042;41.326;19.826;2023-08-06T12:16:25;4.47;;;2.27;;
11964;SDS011;6042;41.326;19.826;2023-08-06T12:18:54;3.77;;;1.70;;
11964;SDS011;6042;41.326;19.826;2023-08-06T12:21:22;5.07;;;3.23;;
11964;SDS011;6042;41.326;19.826;2023-08-06T12:23:51;10.83;;;5.07;;
11964;SDS011;6042;41.326;19.826;2023-08-06T12:26:20;3.30;;;2.60;;
11964;SDS011;6042;41.326;19.826;2023-08-06T12:28:48;5.03;;;2.83;;
11964;SDS011;6042;41.326;19.826;2023-08-06T12:31:17;3.43;;;1.47;;
11964;SDS011;6042;41.326;19.826;2023-08-06T12:33:47;4.10;;;3.40;;
11964;SDS011;6042;41.326;19.826;2023-08-06T12:36:15;10.47;;;4.37;;
11964;SDS011;6042;41.326;19.826;2023-08-06T12:38:45;4.93;;;2.00;;
11964;SDS011;6042;41.326;19.826;2023-08-06T12:41:14;9.03;;;2.60;;
11964;SDS011;6042;41.326;19.826;2023-08-06T12:43:42;6.37;;;2.27;;
11964;SDS011;6042;41.326;19.826;2023-08-06T12:46:11;9.37;;;6.00;;
11964;SDS011;6042;41.326;19.826;2023-08-06T12:48:40;5.97;;;2.87;;
11964;SDS011;6042;41.326;19.826;2023-08-06T12:51:10;8.90;;;3.30;;
11964;SDS011;6042;41.326;19.826;2023-08-06T12:53:38;13.53;;;3.03;;
11964;SDS011;6042;41.326;19.826;2023-08-06T12:56:07;5.37;;;2.57;;
11964;SDS011;6042;41.326;19.826;2023-08-06T12:58:37;3.80;;;1.40;;
11964;SDS011;6042;41.326;19.826;2023-08-06T13:01:06;3.67;;;2.20;;
11964;SDS011;6042;41.326;19.826;2023-08-06T13:03:35;6.17;;;1.87;;
11964;SDS011;6042;41.326;19.826;2023-08-06T13:06:03;5.80;;;3.70;;
11964;SDS011;6042;41.326;19.826;2023-08-06T13:08:33;5.80;;;3.23;;
11964;SDS011;6042;41.326;19.826;2023-08-06T13:11:02;3.70;;;1.50;;
11964;SDS011;6042;41.326;19.826;2023-08-06T13:13:30;3.73;;;2.10;;
11964;SDS011;6042;41.326;19.826;2023-08-06T13:15:59;3.60;;;1.90;;
11964;SDS011;6042;41.326;19.826;2023-08-06T13:18:28;4.17;;;1.60;;
11964;SDS011;6042;41.326;19.826;2023-08-06T13:20:57;5.00;;;1.37;;
11964;SDS011;6042;41.326;19.826;2023-08-06T13:23:26;4.47;;;1.30;;
11964;SDS011;6042;41.326;19.826;2023-08-06T13:25:56;2.00;;;1.00;;
11964;SDS011;6042;41.326;19.826;2023-08-06T13:28:26;1.63;;;0.93;;
11964;SDS011;6042;41.326;19.826;2023-08-06T13:30:55;2.10;;;0.98;;
11964;SDS011;6042;41.326;19.826;2023-08-06T13:33:23;7.57;;;1.50;;
11964;SDS011;6042;41.326;19.826;2023-08-06T13:35:53;2.20;;;1.23;;
11964;SDS011;6042;41.326;19.826;2023-08-06T13:38:25;2.45;;;1.63;;
11964;SDS011;6042;41.326;19.826;2023-08-06T13:40:53;4.72;;;1.25;;
11964;SDS011;6042;41.326;19.826;2023-08-06T13:43:24;2.80;;;1.10;;
11964;SDS011;6042;41.326;19.826;2023-08-06T13:45:54;1.65;;;1.05;;
11964;SDS011;6042;41.326;19.826;2023-08-06T13:48:22;10.20;;;2.22;;
11964;SDS011;6042;41.326;19.826;2023-08-06T13:50:51;3.10;;;1.20;;
11964;SDS011;6042;41.326;19.826;2023-08-06T13:53:20;5.13;;;2.37;;
11964;SDS011;6042;41.326;19.826;2023-08-06T13:55:48;5.93;;;2.70;;
11964;SDS011;6042;41.326;19.826;2023-08-06T13:58:18;6.50;;;3.70;;
11964;SDS011;6042;41.326;19.826;2023-08-06T14:00:47;5.82;;;3.92;;
11964;SDS011;6042;41.326;19.826;2023-08-06T14:03:15;3.60;;;2.15;;
11964;SDS011;6042;41.326;19.826;2023-08-06T14:05:44;1.45;;;1.27;;
11964;SDS011;6042;41.326;19.826;2023-08-06T14:08:12;2.42;;;1.38;;
11964;SDS011;6042;41.326;19.826;2023-08-06T14:10:44;3.70;;;1.42;;
11964;SDS011;6042;41.326;19.826;2023-08-06T14:13:13;2.38;;;1.10;;
11964;SDS011;6042;41.326;19.826;2023-08-06T14:15:43;2.70;;;1.10;;
11964;SDS011;6042;41.326;19.826;2023-08-06T14:18:14;3.55;;;1.23;;
11964;SDS011;6042;41.326;19.826;2023-08-06T14:20:43;3.83;;;1.63;;
11964;SDS011;6042;41.326;19.826;2023-08-06T14:23:12;1.50;;;1.00;;
11964;SDS011;6042;41.326;19.826;2023-08-06T14:25:40;2.65;;;1.10;;
11964;SDS011;6042;41.326;19.826;2023-08-06T14:28:09;2.72;;;1.00;;
11964;SDS011;6042;41.326;19.826;2023-08-06T14:30:37;3.13;;;1.20;;
11964;SDS011;6042;41.326;19.826;2023-08-06T14:33:07;2.15;;;1.00;;
11964;SDS011;6042;41.326;19.826;2023-08-06T14:35:53;1.92;;;1.08;;
11964;SDS011;6042;41.326;19.826;2023-08-06T14:38:21;7.35;;;1.48;;
11964;SDS011;6042;41.326;19.826;2023-08-06T14:40:50;2.55;;;1.23;;
11964;SDS011;6042;41.326;19.826;2023-08-06T14:43:18;3.28;;;0.93;;
11964;SDS011;6042;41.326;19.826;2023-08-06T14:45:50;2.60;;;1.00;;
11964;SDS011;6042;41.326;19.826;2023-08-06T14:48:28;2.70;;;1.10;;
11964;SDS011;6042;41.326;19.826;2023-08-06T14:50:56;3.45;;;0.88;;
11964;SDS011;6042;41.326;19.826;2023-08-06T14:53:25;4.35;;;1.20;;
11964;SDS011;6042;41.326;19.826;2023-08-06T14:55:54;3.15;;;2.72;;
11964;SDS011;6042;41.326;19.826;2023-08-06T14:58:22;3.63;;;1.08;;
11964;SDS011;6042;41.326;19.826;2023-08-06T15:00:51;2.35;;;1.00;;
11964;SDS011;6042;41.326;19.826;2023-08-06T15:03:21;1.75;;;1.48;;